Time;durP1;ratioP1;P1;durP2;ratioP2;P2;SDS_P1;SDS_P2;PMS_P1;PMS_P2;Temp;Humidity;BMP_temperature;BMP_pressure;BME280_temperature;BME280_humidity;BME280_pressure;Samples;Min_cycle;Max_cycle;Signal;HPM_P1;HPM_P2
2023/07/16 00:00:09;;;;;;;1.23;1.13;;;20.00;99.90;;;;;;4974886;28;20399;-84
2023/07/16 00:02:38;;;;;;;1.20;1.10;;;19.90;99.90;;;;;;4974912;28;20435;-85
2023/07/16 00:05:04;;;;;;;1.45;1.20;;;19.90;99.90;;;;;;4979578;28;20815;-85
2023/07/16 00:07:29;;;;;;;1.25;1.13;;;19.90;99.90;;;;;;4984323;28;20395;-85
2023/07/16 00:09:55;;;;;;;2.45;1.17;;;19.70;99.90;;;;;;4980544;28;20917;-85
2023/07/16 00:12:20;;;;;;;1.30;1.00;;;19.80;99.90;;;;;;4981271;28;20396;-86
2023/07/16 00:14:47;;;;;;;1.10;1.00;;;19.60;99.90;;;;;;4983022;28;20898;-85
2023/07/16 00:17:12;;;;;;;1.13;1.00;;;19.70;99.90;;;;;;4994813;28;21004;-82
2023/07/16 00:25:35;;;;;;;1.50;0.90;;;19.30;99.90;;;;;;4987769;28;20577;-82
2023/07/16 00:28:00;;;;;;;1.92;1.30;;;19.30;99.90;;;;;;4974504;28;20497;-81
2023/07/16 00:30:26;;;;;;;2.33;1.40;;;19.20;99.90;;;;;;4960678;28;20432;-83
2023/07/16 00:32:52;;;;;;;1.27;1.17;;;19.10;99.90;;;;;;4944344;29;20386;-84
2023/07/16 00:35:17;;;;;;;1.80;1.30;;;19.00;99.90;;;;;;4941155;29;20585;-84
2023/07/16 00:37:44;;;;;;;2.40;1.70;;;19.00;99.90;;;;;;4959369;29;20458;-85
2023/07/16 00:40:10;;;;;;;3.05;1.40;;;18.90;99.90;;;;;;4937924;29;20429;-83
2023/07/16 00:42:35;;;;;;;1.50;1.30;;;18.90;99.90;;;;;;4940793;29;20405;-83
2023/07/16 00:45:01;;;;;;;2.60;1.40;;;18.90;99.90;;;;;;4941023;29;20460;-84
2023/07/16 00:47:27;;;;;;;1.60;1.30;;;18.80;99.90;;;;;;4938758;29;20389;-83
2023/07/16 00:49:52;;;;;;;2.17;1.30;;;18.60;99.90;;;;;;4956104;29;20437;-84
2023/07/16 00:52:20;;;;;;;2.50;1.70;;;18.70;99.90;;;;;;4938276;29;20398;-83
2023/07/16 00:54:46;;;;;;;2.33;1.38;;;18.70;99.90;;;;;;4939882;29;20402;-83
2023/07/16 00:57:12;;;;;;;1.70;1.30;;;18.40;99.90;;;;;;4940229;29;20394;-83
2023/07/16 00:59:37;;;;;;;2.30;1.13;;;18.40;99.90;;;;;;4940061;29;20437;-84
2023/07/16 01:02:03;;;;;;;1.10;1.00;;;18.40;99.90;;;;;;4939981;29;20397;-83
2023/07/16 01:04:29;;;;;;;2.70;1.30;;;18.40;99.90;;;;;;4961566;29;20410;-82
2023/07/16 01:06:58;;;;;;;1.30;1.00;;;18.30;99.90;;;;;;4961104;29;20893;-82
2023/07/16 01:09:24;;;;;;;2.80;1.23;;;18.30;99.90;;;;;;4942984;29;20409;-84
2023/07/16 01:11:52;;;;;;;2.20;0.97;;;18.30;99.90;;;;;;4942237;29;20397;-83
2023/07/16 01:14:18;;;;;;;1.30;1.20;;;18.30;99.90;;;;;;4941283;29;20397;-83
2023/07/16 01:16:45;;;;;;;1.60;1.10;;;18.20;99.90;;;;;;4957708;29;20837;-82
2023/07/16 01:19:13;;;;;;;1.30;1.20;;;18.40;99.90;;;;;;4958811;29;20390;-84
2023/07/16 01:22:00;;;;;;;2.45;1.20;;;18.60;99.90;;;;;;4940010;29;20790;-83
2023/07/16 01:24:37;;;;;;;1.63;1.30;;;18.60;99.90;;;;;;4940927;29;20490;-84
2023/07/16 01:27:34;;;;;;;1.20;1.10;;;18.60;99.90;;;;;;4940563;29;20413;-84
2023/07/16 01:30:04;;;;;;;1.58;1.10;;;18.60;99.90;;;;;;4939331;29;20426;-82
2023/07/16 01:32:33;;;;;;;2.30;1.70;;;18.40;99.90;;;;;;4938426;29;20393;-83
2023/07/16 01:34:59;;;;;;;2.20;1.40;;;18.20;99.90;;;;;;4956382;29;20394;-83
2023/07/16 01:37:25;;;;;;;1.20;1.10;;;18.10;99.90;;;;;;4956053;29;20874;-84
2023/07/16 01:39:51;;;;;;;1.80;1.30;;;18.20;99.90;;;;;;4955970;29;20405;-82
2023/07/16 01:42:16;;;;;;;1.33;1.20;;;18.20;99.90;;;;;;4937773;29;20408;-82
2023/07/16 01:44:42;;;;;;;1.20;1.10;;;18.20;99.90;;;;;;4955697;29;20809;-83
2023/07/16 01:47:23;;;;;;;2.30;1.10;;;18.20;99.90;;;;;;4957107;29;20404;-83
2023/07/16 01:49:48;;;;;;;1.55;1.33;;;18.20;99.90;;;;;;4956778;29;20414;-84
2023/07/16 01:52:14;;;;;;;1.90;1.35;;;18.20;99.90;;;;;;4956468;28;20414;-84
2023/07/16 01:54:39;;;;;;;1.37;1.13;;;18.20;99.90;;;;;;4943469;29;20921;-83
2023/07/16 01:57:05;;;;;;;1.83;1.20;;;18.20;99.90;;;;;;4960095;29;20390;-84
2023/07/16 01:59:31;;;;;;;2.30;1.00;;;18.10;99.90;;;;;;4943788;29;20842;-83
2023/07/16 02:01:56;;;;;;;1.37;1.13;;;18.00;99.90;;;;;;4952018;29;20383;-82
2023/07/16 02:04:22;;;;;;;3.77;2.00;;;18.00;99.90;;;;;;4955110;29;20510;-83
2023/07/16 02:06:48;;;;;;;1.92;1.30;;;18.00;99.90;;;;;;4955852;28;20390;-85
2023/07/16 02:09:14;;;;;;;2.47;1.40;;;17.90;99.90;;;;;;4943581;29;20516;-83
2023/07/16 02:11:39;;;;;;;3.40;1.52;;;17.80;99.90;;;;;;4961101;28;20397;-84
2023/07/16 02:14:05;;;;;;;3.10;1.57;;;17.70;99.90;;;;;;4940181;29;20398;-84
2023/07/16 02:16:30;;;;;;;1.63;1.30;;;17.70;99.90;;;;;;4943299;29;20456;-85
2023/07/16 02:18:56;;;;;;;1.70;1.20;;;17.60;99.90;;;;;;4942985;29;20402;-84
2023/07/16 02:21:21;;;;;;;2.67;1.70;;;17.60;99.90;;;;;;4961578;29;20406;-83
2023/07/16 02:23:47;;;;;;;3.33;1.42;;;17.60;99.90;;;;;;4944671;29;20414;-84
2023/07/16 02:26:12;;;;;;;2.20;1.30;;;17.60;99.90;;;;;;4943101;29;20820;-85
2023/07/16 02:28:38;;;;;;;3.30;1.50;;;17.70;99.90;;;;;;4951543;29;20410;-85
2023/07/16 02:31:03;;;;;;;1.00;0.90;;;17.80;99.90;;;;;;4959686;28;20414;-84
2023/07/16 02:33:29;;;;;;;2.80;1.40;;;17.70;99.90;;;;;;4960619;29;20408;-84
2023/07/16 02:35:54;;;;;;;2.57;1.20;;;17.80;99.90;;;;;;4944304;29;20464;-85
2023/07/16 02:38:20;;;;;;;2.38;1.40;;;17.80;99.90;;;;;;4956809;29;20410;-85
2023/07/16 02:40:47;;;;;;;3.30;1.23;;;17.80;99.90;;;;;;4960445;28;20418;-85
2023/07/16 02:43:13;;;;;;;1.90;1.30;;;17.90;99.90;;;;;;4958738;29;20436;-83
2023/07/16 02:45:39;;;;;;;1.60;1.30;;;17.90;99.90;;;;;;4958862;29;20394;-84
2023/07/16 02:48:06;;;;;;;2.55;1.30;;;17.90;99.90;;;;;;4976283;29;20416;-84
2023/07/16 02:50:38;;;;;;;3.17;1.40;;;17.90;99.90;;;;;;4975066;28;20516;-82
2023/07/16 02:53:05;;;;;;;3.80;1.33;;;17.90;99.90;;;;;;4950635;29;20441;-85
2023/07/16 02:55:30;;;;;;;2.27;1.57;;;18.00;99.90;;;;;;4948856;29;20486;-85
2023/07/16 02:57:56;;;;;;;2.10;1.43;;;17.90;99.90;;;;;;4954195;29;20400;-85
2023/07/16 03:00:22;;;;;;;1.80;1.10;;;18.00;99.90;;;;;;4945221;28;20412;-84
2023/07/16 03:02:49;;;;;;;2.03;1.40;;;18.10;99.90;;;;;;4937335;29;20421;-83
2023/07/16 03:05:16;;;;;;;2.75;1.20;;;18.00;99.90;;;;;;4955296;29;20409;-83
2023/07/16 03:07:41;;;;;;;2.05;1.40;;;18.00;99.90;;;;;;4955111;29;20398;-85
2023/07/16 03:10:07;;;;;;;2.35;1.30;;;18.10;99.90;;;;;;4938726;29;20421;-84
2023/07/16 03:12:33;;;;;;;3.75;1.23;;;17.90;99.90;;;;;;4937605;29;20394;-83
2023/07/16 03:14:58;;;;;;;2.47;1.30;;;17.80;99.90;;;;;;4955419;29;20394;-84
2023/07/16 03:17:24;;;;;;;4.80;1.20;;;17.80;99.90;;;;;;4957755;28;20831;-84
2023/07/16 03:19:50;;;;;;;2.05;1.40;;;17.60;99.90;;;;;;4940146;29;20402;-84
2023/07/16 03:22:15;;;;;;;4.00;1.70;;;17.80;99.90;;;;;;4958617;29;20410;-85
2023/07/16 03:24:41;;;;;;;1.40;1.10;;;17.60;99.90;;;;;;4941874;29;20398;-84
2023/07/16 03:27:07;;;;;;;2.28;1.10;;;17.60;99.90;;;;;;4956536;29;20410;-84
2023/07/16 03:29:35;;;;;;;2.22;1.30;;;17.50;99.90;;;;;;4946778;29;20446;-84
2023/07/16 03:32:01;;;;;;;1.83;1.20;;;17.40;99.90;;;;;;4948440;29;20394;-84
2023/07/16 03:34:27;;;;;;;1.30;0.90;;;17.50;99.90;;;;;;4952196;29;20462;-83
2023/07/16 03:36:53;;;;;;;2.83;1.33;;;17.40;99.90;;;;;;4939878;29;20422;-84
2023/07/16 03:39:18;;;;;;;3.03;1.23;;;17.50;99.90;;;;;;4938165;29;20762;-84
2023/07/16 03:41:44;;;;;;;1.50;1.10;;;18.00;99.90;;;;;;4938781;29;20460;-85
2023/07/16 03:44:10;;;;;;;4.73;1.40;;;17.30;99.90;;;;;;4945710;29;20424;-84
2023/07/16 03:46:35;;;;;;;2.05;1.30;;;17.40;99.90;;;;;;4969291;29;20401;-86
2023/07/16 03:49:01;;;;;;;2.23;1.30;;;17.40;99.90;;;;;;4957466;29;20410;-85
2023/07/16 03:51:27;;;;;;;2.73;1.23;;;17.60;99.90;;;;;;4939562;29;20824;-85
2023/07/16 03:53:52;;;;;;;1.70;1.40;;;17.70;99.90;;;;;;4938918;29;20390;-84
2023/07/16 03:56:18;;;;;;;2.90;1.80;;;17.60;99.90;;;;;;4962000;29;20390;-84
2023/07/16 03:58:43;;;;;;;2.17;1.50;;;17.50;99.90;;;;;;4942179;29;20405;-84
2023/07/16 04:01:09;;;;;;;3.10;1.55;;;17.40;99.90;;;;;;4941831;29;20411;-84
2023/07/16 04:03:35;;;;;;;4.03;1.30;;;17.20;99.90;;;;;;4940673;29;20769;-84
2023/07/16 04:06:02;;;;;;;2.15;1.48;;;17.20;99.90;;;;;;4937346;29;20390;-84
2023/07/16 04:08:28;;;;;;;2.80;1.40;;;17.20;99.90;;;;;;4940337;29;20505;-85
2023/07/16 04:10:53;;;;;;;2.10;1.27;;;17.30;99.90;;;;;;4955302;28;20842;-85
2023/07/16 04:13:19;;;;;;;4.30;1.70;;;17.50;99.90;;;;;;4938066;29;20413;-83
2023/07/16 04:15:44;;;;;;;2.83;1.23;;;17.70;99.90;;;;;;4939326;29;20401;-84
2023/07/16 04:18:10;;;;;;;2.78;1.30;;;17.80;99.90;;;;;;4954848;29;20769;-85
2023/07/16 04:20:36;;;;;;;3.00;1.50;;;17.80;99.90;;;;;;4938235;28;20422;-84
2023/07/16 04:23:01;;;;;;;3.20;1.40;;;17.80;99.90;;;;;;4954395;29;20416;-85
2023/07/16 04:25:27;;;;;;;3.93;1.80;;;18.20;99.90;;;;;;4938030;29;20409;-84
2023/07/16 04:27:52;;;;;;;3.20;1.50;;;17.90;99.90;;;;;;4937712;29;20476;-85
2023/07/16 04:30:18;;;;;;;2.75;1.50;;;17.90;99.90;;;;;;4936380;28;20456;-84
2023/07/16 04:32:43;;;;;;;3.27;1.37;;;17.80;99.90;;;;;;4943315;29;20405;-84
2023/07/16 04:35:09;;;;;;;3.35;1.52;;;17.90;99.90;;;;;;4975217;29;20510;-85
2023/07/16 04:37:34;;;;;;;4.17;1.63;;;18.10;99.90;;;;;;4976066;28;20389;-86
2023/07/16 04:40:00;;;;;;;5.93;1.50;;;18.00;99.90;;;;;;4956363;29;20406;-83
2023/07/16 04:42:25;;;;;;;3.92;1.75;;;18.00;99.90;;;;;;4944428;29;20393;-82
2023/07/16 04:44:51;;;;;;;2.80;1.67;;;18.10;99.90;;;;;;4940723;29;20448;-84
2023/07/16 04:47:16;;;;;;;3.90;1.50;;;18.10;99.90;;;;;;4943276;29;20393;-85
2023/07/16 04:49:42;;;;;;;3.20;1.70;;;18.00;99.90;;;;;;4945230;29;20413;-85
2023/07/16 04:52:08;;;;;;;3.73;1.77;;;18.00;99.90;;;;;;4943694;29;20397;-84
2023/07/16 04:54:37;;;;;;;3.28;1.50;;;18.00;99.90;;;;;;4941287;29;20477;-85
2023/07/16 04:57:04;;;;;;;2.20;1.50;;;17.90;99.90;;;;;;4941760;29;20424;-86
2023/07/16 04:59:29;;;;;;;3.90;1.70;;;18.00;99.90;;;;;;4938475;29;20441;-85
2023/07/16 05:01:55;;;;;;;3.35;1.70;;;18.00;99.90;;;;;;4937684;29;21145;-84
2023/07/16 05:04:20;;;;;;;2.10;1.40;;;18.10;99.90;;;;;;4957268;29;20402;-85
2023/07/16 05:06:46;;;;;;;2.53;1.30;;;18.00;99.90;;;;;;4938315;29;20398;-85
2023/07/16 05:09:12;;;;;;;3.58;1.60;;;18.00;99.90;;;;;;4956371;29;20420;-85
2023/07/16 05:11:38;;;;;;;3.60;1.50;;;18.00;99.90;;;;;;4955811;28;20402;-85
2023/07/16 05:14:04;;;;;;;2.50;1.80;;;18.10;99.90;;;;;;4939340;29;20500;-84
2023/07/16 05:16:29;;;;;;;3.75;1.40;;;18.10;99.90;;;;;;4939548;29;20390;-84
2023/07/16 05:18:55;;;;;;;2.63;1.40;;;18.10;99.90;;;;;;4957258;29;20405;-84
2023/07/16 05:21:20;;;;;;;4.32;1.90;;;18.10;99.90;;;;;;4957132;28;20412;-84
2023/07/16 05:23:46;;;;;;;1.90;1.20;;;18.20;99.90;;;;;;4958445;29;20905;-85
2023/07/16 05:26:11;;;;;;;3.22;1.30;;;18.20;99.90;;;;;;4939624;29;20488;-85
2023/07/16 05:28:37;;;;;;;3.23;1.33;;;18.20;99.90;;;;;;4938781;29;20448;-86
2023/07/16 05:31:03;;;;;;;3.13;1.30;;;18.10;99.90;;;;;;4945170;28;20386;-87
2023/07/16 05:33:29;;;;;;;2.80;1.57;;;18.20;99.90;;;;;;4961690;28;20414;-85
2023/07/16 05:36:26;;;;;;;4.23;1.60;;;18.30;99.90;;;;;;4977459;28;20421;-89
2023/07/16 05:38:52;;;;;;;2.50;1.60;;;18.20;99.90;;;;;;4966589;28;20398;-86
2023/07/16 05:41:17;;;;;;;5.20;1.60;;;18.20;99.90;;;;;;4942207;28;20413;-86
2023/07/16 05:43:43;;;;;;;4.88;2.00;;;18.10;99.90;;;;;;4940714;29;20407;-88
2023/07/16 05:46:11;;;;;;;3.13;1.60;;;18.20;99.90;;;;;;4938641;29;20409;-88
2023/07/16 05:48:37;;;;;;;2.90;1.50;;;19.00;99.90;;;;;;4940439;29;20434;-84
2023/07/16 05:51:02;;;;;;;2.00;1.37;;;18.20;99.90;;;;;;4960583;28;20936;-87
2023/07/16 05:53:28;;;;;;;1.70;1.20;;;18.20;99.90;;;;;;4957444;29;20388;-88
2023/07/16 05:55:54;;;;;;;3.90;1.50;;;18.30;99.90;;;;;;4938831;29;20409;-85
2023/07/16 05:58:19;;;;;;;3.75;1.60;;;18.50;99.90;;;;;;4956515;29;20410;-84
2023/07/16 06:00:45;;;;;;;2.80;1.40;;;18.50;99.90;;;;;;4960442;28;20397;-84
2023/07/16 06:03:10;;;;;;;2.00;1.50;;;18.30;99.90;;;;;;4941064;29;20465;-85
2023/07/16 06:05:36;;;;;;;2.13;1.42;;;18.40;99.90;;;;;;4942557;29;20397;-85
2023/07/16 06:08:02;;;;;;;3.65;2.10;;;18.30;99.90;;;;;;4961390;29;20397;-87
2023/07/16 06:10:28;;;;;;;3.03;1.50;;;18.40;99.90;;;;;;4943454;28;20401;-86
2023/07/16 06:12:53;;;;;;;1.80;1.40;;;18.50;99.90;;;;;;4945254;29;20403;-85
2023/07/16 06:15:19;;;;;;;3.00;1.70;;;18.60;99.90;;;;;;4959923;29;20487;-85
2023/07/16 06:17:44;;;;;;;2.90;1.60;;;18.60;99.90;;;;;;4944122;29;20413;-86
2023/07/16 06:20:10;;;;;;;3.73;1.50;;;18.60;99.90;;;;;;4943253;29;20394;-85
2023/07/16 06:22:36;;;;;;;2.10;1.30;;;18.80;99.90;;;;;;4944103;29;20433;-85
2023/07/16 06:25:02;;;;;;;2.83;1.40;;;18.90;99.90;;;;;;4945893;29;20404;-86
2023/07/16 06:27:27;;;;;;;4.25;1.60;;;18.80;99.90;;;;;;4944161;29;20394;-85
2023/07/16 06:29:53;;;;;;;1.80;1.23;;;18.80;99.90;;;;;;4943998;29;20421;-85
2023/07/16 06:32:18;;;;;;;3.28;1.73;;;18.90;99.90;;;;;;4944382;29;20394;-85
2023/07/16 06:34:44;;;;;;;2.90;1.53;;;18.80;99.90;;;;;;4970871;23;20485;-83
2023/07/16 06:37:10;;;;;;;1.97;1.60;;;18.90;99.90;;;;;;5023960;28;20495;-83
2023/07/16 06:39:35;;;;;;;3.15;1.55;;;18.90;99.90;;;;;;5011361;28;20410;-83
2023/07/16 06:42:01;;;;;;;3.97;1.53;;;18.90;99.90;;;;;;5025625;28;20393;-85
2023/07/16 06:44:26;;;;;;;2.90;1.50;;;19.10;99.90;;;;;;5011324;28;20408;-83
2023/07/16 06:46:52;;;;;;;3.47;1.60;;;19.20;99.90;;;;;;4988256;28;20919;-85
2023/07/16 06:49:18;;;;;;;5.72;1.50;;;19.10;99.90;;;;;;4992795;28;20412;-84
2023/07/16 06:51:44;;;;;;;2.20;1.50;;;19.00;99.90;;;;;;4986183;28;20392;-84
2023/07/16 06:54:09;;;;;;;3.33;1.60;;;19.30;99.90;;;;;;5000236;28;20458;-82
2023/07/16 06:56:35;;;;;;;3.90;1.50;;;19.10;99.90;;;;;;4993907;28;20802;-86
2023/07/16 06:59:00;;;;;;;2.30;1.50;;;19.30;99.90;;;;;;4986201;28;20422;-85
2023/07/16 07:01:27;;;;;;;2.63;1.63;;;19.30;99.90;;;;;;5000151;28;20401;-85
2023/07/16 07:03:53;;;;;;;3.70;1.40;;;19.20;99.90;;;;;;4979154;28;20423;-83
2023/07/16 07:06:19;;;;;;;2.67;1.63;;;19.20;99.90;;;;;;4997771;28;20398;-84
2023/07/16 07:08:44;;;;;;;4.27;1.30;;;19.20;99.90;;;;;;5000159;28;20406;-85
2023/07/16 07:11:10;;;;;;;2.40;1.80;;;19.30;99.90;;;;;;4977661;28;21107;-85
2023/07/16 07:13:35;;;;;;;2.27;1.50;;;19.40;99.90;;;;;;4979659;28;20394;-86
2023/07/16 07:16:01;;;;;;;2.00;1.40;;;19.30;99.90;;;;;;4998443;28;20394;-86
2023/07/16 07:18:26;;;;;;;2.90;1.30;;;19.30;99.90;;;;;;4997150;28;20394;-83
2023/07/16 07:20:52;;;;;;;3.37;1.50;;;19.40;99.90;;;;;;4982335;28;20470;-84
2023/07/16 07:23:17;;;;;;;4.05;1.67;;;19.30;99.90;;;;;;4979332;28;20478;-84
2023/07/16 07:25:43;;;;;;;5.37;1.73;;;19.40;99.90;;;;;;4986477;28;20389;-84
2023/07/16 07:28:08;;;;;;;2.13;1.70;;;19.30;99.90;;;;;;4992796;28;20391;-84
2023/07/16 07:30:34;;;;;;;3.50;1.60;;;19.40;99.90;;;;;;4979042;28;20482;-84
2023/07/16 07:32:59;;;;;;;3.10;1.60;;;19.40;99.90;;;;;;4999640;28;20446;-86
2023/07/16 07:35:25;;;;;;;2.33;1.70;;;19.40;99.90;;;;;;4997948;28;20421;-85
2023/07/16 07:37:50;;;;;;;2.93;1.50;;;19.40;99.90;;;;;;4980977;28;20781;-84
2023/07/16 07:40:17;;;;;;;2.80;1.50;;;19.20;99.90;;;;;;4982403;28;20771;-84
2023/07/16 07:42:42;;;;;;;3.85;1.60;;;19.20;99.90;;;;;;4999791;28;20484;-84
2023/07/16 07:45:08;;;;;;;4.88;1.60;;;19.20;99.90;;;;;;4999706;28;20421;-85
2023/07/16 07:47:34;;;;;;;3.43;1.73;;;19.30;99.90;;;;;;4999107;28;20490;-84
2023/07/16 07:49:59;;;;;;;6.17;1.57;;;19.50;99.90;;;;;;4998052;28;20410;-85
2023/07/16 07:52:27;;;;;;;4.15;1.60;;;19.60;99.90;;;;;;4981230;28;20401;-85
2023/07/16 07:54:52;;;;;;;4.45;1.90;;;19.70;99.90;;;;;;4980786;28;20406;-84
2023/07/16 07:57:20;;;;;;;3.83;1.80;;;19.60;99.90;;;;;;4999497;28;20385;-85
2023/07/16 07:59:45;;;;;;;2.78;1.70;;;19.50;99.90;;;;;;4978450;28;20391;-84
2023/07/16 08:02:11;;;;;;;4.50;1.90;;;19.70;99.90;;;;;;5004474;28;20378;-83
2023/07/16 08:04:37;;;;;;;4.40;1.67;;;19.80;99.90;;;;;;4985868;28;20493;-85
2023/07/16 08:07:02;;;;;;;3.90;1.70;;;19.90;99.90;;;;;;5004646;28;20401;-82
2023/07/16 08:09:28;;;;;;;4.28;1.65;;;20.00;99.90;;;;;;4998207;28;20422;-83
2023/07/16 08:11:53;;;;;;;3.00;1.70;;;20.00;99.90;;;;;;4983774;28;20469;-83
2023/07/16 08:14:19;;;;;;;2.90;1.90;;;20.20;99.90;;;;;;5008012;28;20382;-84
2023/07/16 08:16:45;;;;;;;4.00;1.60;;;20.20;99.90;;;;;;4987748;28;20409;-85
2023/07/16 08:19:10;;;;;;;2.00;1.40;;;20.20;99.90;;;;;;4983622;28;20481;-84
2023/07/16 08:21:37;;;;;;;3.75;1.45;;;20.30;99.90;;;;;;5000250;28;20421;-84
2023/07/16 08:24:05;;;;;;;3.80;1.90;;;20.40;99.90;;;;;;4986142;28;20406;-86
2023/07/16 08:26:30;;;;;;;2.80;1.50;;;20.60;99.90;;;;;;5004823;28;20401;-84
2023/07/16 08:28:56;;;;;;;3.65;1.65;;;20.70;99.90;;;;;;5005386;28;20419;-85
2023/07/16 08:31:21;;;;;;;5.70;1.70;;;20.40;99.90;;;;;;4996284;28;20387;-83
2023/07/16 08:33:47;;;;;;;5.00;1.60;;;20.40;99.90;;;;;;4998318;28;20398;-85
2023/07/16 08:36:12;;;;;;;2.78;1.45;;;20.30;99.90;;;;;;4978994;28;20775;-84
2023/07/16 08:38:38;;;;;;;3.47;1.73;;;20.40;99.90;;;;;;4981049;28;20479;-83
2023/07/16 08:41:03;;;;;;;3.03;1.80;;;20.50;99.90;;;;;;4998670;28;20410;-84
2023/07/16 08:43:30;;;;;;;3.70;1.60;;;20.50;99.90;;;;;;5000482;28;20390;-85
2023/07/16 08:45:56;;;;;;;2.70;1.75;;;20.40;99.90;;;;;;4997569;28;20397;-83
2023/07/16 08:48:22;;;;;;;3.60;1.75;;;20.30;99.90;;;;;;4983197;28;20398;-83
2023/07/16 08:50:49;;;;;;;3.53;1.50;;;20.40;99.90;;;;;;5006451;28;20932;-82
2023/07/16 08:53:16;;;;;;;3.20;1.60;;;20.60;99.90;;;;;;5012682;28;20382;-82
2023/07/16 08:55:45;;;;;;;3.47;1.90;;;20.60;99.90;;;;;;4996791;28;20383;-82
2023/07/16 08:58:14;;;;;;;2.88;1.80;;;20.60;99.90;;;;;;5012599;28;20430;-82
2023/07/16 09:00:42;;;;;;;2.83;1.50;;;20.60;99.90;;;;;;5007027;28;20401;-82
2023/07/16 09:03:08;;;;;;;2.97;2.10;;;20.80;99.90;;;;;;5006661;28;20398;-83
2023/07/16 09:05:35;;;;;;;2.00;1.60;;;20.60;99.90;;;;;;5003468;28;20398;-84
2023/07/16 09:08:01;;;;;;;2.95;1.50;;;20.90;99.90;;;;;;4984820;28;20398;-83
2023/07/16 09:10:26;;;;;;;4.28;1.70;;;20.90;99.90;;;;;;4982027;28;20829;-83
2023/07/16 09:12:52;;;;;;;3.20;1.90;;;20.80;99.90;;;;;;5003674;28;20461;-83
2023/07/16 09:15:19;;;;;;;2.75;1.60;;;20.90;99.90;;;;;;5004062;28;20395;-84
2023/07/16 09:17:49;;;;;;;6.38;1.70;;;21.00;99.90;;;;;;5006548;28;20390;-83
2023/07/16 09:20:18;;;;;;;2.85;1.60;;;21.20;99.90;;;;;;4974724;28;20407;-82
2023/07/16 09:22:44;;;;;;;4.18;1.58;;;21.30;99.90;;;;;;4990622;28;20380;-84
2023/07/16 09:25:10;;;;;;;2.67;1.67;;;21.10;99.90;;;;;;4971952;28;20410;-84
2023/07/16 09:27:36;;;;;;;5.05;1.60;;;21.00;99.90;;;;;;4964686;28;20388;-85
2023/07/16 09:30:05;;;;;;;3.88;1.70;;;20.90;99.90;;;;;;4974559;28;20925;-85
2023/07/16 09:32:39;;;;;;;3.75;1.50;;;21.00;99.90;;;;;;4980377;28;20994;-84
2023/07/16 09:35:12;;;;;;;3.67;1.40;;;21.10;99.90;;;;;;4978514;28;20398;-84
2023/07/16 09:37:38;;;;;;;4.68;1.40;;;21.20;99.90;;;;;;4980651;28;20390;-84
2023/07/16 09:40:09;;;;;;;4.25;1.45;;;21.40;99.90;;;;;;4980737;28;20893;-84
2023/07/16 09:42:39;;;;;;;4.80;1.80;;;21.60;99.90;;;;;;4979134;28;20464;-84
2023/07/16 09:45:07;;;;;;;3.50;2.00;;;21.60;99.90;;;;;;4980855;28;20386;-83
2023/07/16 09:47:33;;;;;;;4.85;1.80;;;21.60;99.90;;;;;;4981314;28;20390;-83
2023/07/16 09:49:59;;;;;;;2.85;1.55;;;21.30;99.90;;;;;;4979681;28;20758;-85
2023/07/16 09:52:27;;;;;;;4.00;1.70;;;21.50;99.90;;;;;;4979311;28;20391;-85
2023/07/16 09:54:55;;;;;;;3.42;1.70;;;21.70;99.90;;;;;;4978765;28;20943;-85
2023/07/16 09:57:23;;;;;;;2.88;1.90;;;21.60;99.90;;;;;;4977336;28;20401;-85
2023/07/16 09:59:51;;;;;;;4.05;1.60;;;21.70;99.90;;;;;;4979713;28;20885;-86
2023/07/16 10:02:17;;;;;;;3.00;1.63;;;21.60;99.90;;;;;;4996903;28;20405;-85
2023/07/16 10:04:42;;;;;;;4.22;1.77;;;21.80;99.90;;;;;;4979269;28;20395;-86
2023/07/16 10:07:22;;;;;;;2.35;1.60;;;21.70;99.90;;;;;;4997057;28;20402;-86
2023/07/16 10:09:52;;;;;;;2.40;1.70;;;21.50;99.90;;;;;;4978817;28;20414;-87
2023/07/16 10:12:19;;;;;;;2.80;1.70;;;21.50;99.90;;;;;;5005221;28;20391;-84
2023/07/16 10:14:46;;;;;;;3.90;1.80;;;21.60;99.90;;;;;;4982436;28;20922;-79
2023/07/16 10:17:22;;;;;;;3.58;1.83;;;21.60;99.90;;;;;;5000315;28;20387;-80
2023/07/16 10:19:49;;;;;;;3.95;1.90;;;21.60;99.90;;;;;;5000535;28;20406;-80
2023/07/16 10:22:15;;;;;;;3.75;1.98;;;21.70;99.90;;;;;;5001558;28;20410;-80
2023/07/16 10:24:41;;;;;;;3.60;1.90;;;21.60;99.90;;;;;;4982344;28;20457;-79
2023/07/16 10:27:07;;;;;;;2.20;1.80;;;21.50;99.90;;;;;;4998786;28;20391;-79
2023/07/16 10:29:33;;;;;;;2.00;1.50;;;21.60;99.90;;;;;;5000013;28;20521;-80
2023/07/16 10:31:58;;;;;;;3.85;1.80;;;21.40;99.90;;;;;;4998713;28;20453;-81
2023/07/16 10:34:26;;;;;;;2.10;1.50;;;21.40;99.90;;;;;;4999985;28;20912;-79
2023/07/16 10:36:51;;;;;;;4.32;2.00;;;21.50;99.90;;;;;;4999138;28;20410;-80
2023/07/16 10:39:17;;;;;;;4.13;2.20;;;21.50;99.90;;;;;;4981928;28;20429;-80
2023/07/16 10:41:42;;;;;;;2.03;1.42;;;21.60;99.90;;;;;;5000365;28;20397;-81
2023/07/16 10:44:09;;;;;;;3.20;1.77;;;21.40;99.90;;;;;;4998360;28;20409;-81
2023/07/16 10:46:36;;;;;;;3.60;1.88;;;21.40;99.90;;;;;;4978164;28;20398;-78
2023/07/16 10:49:02;;;;;;;5.10;2.00;;;21.70;99.90;;;;;;4982907;28;20861;-78
2023/07/16 10:51:28;;;;;;;2.50;1.60;;;21.60;99.90;;;;;;4979565;28;20394;-79
2023/07/16 10:53:55;;;;;;;3.13;1.80;;;21.70;99.90;;;;;;4981089;28;20797;-79
2023/07/16 10:56:21;;;;;;;2.83;1.60;;;21.60;99.90;;;;;;4980925;28;20894;-79
2023/07/16 10:58:46;;;;;;;3.37;1.90;;;21.70;99.90;;;;;;4998987;28;20387;-79
2023/07/16 11:01:12;;;;;;;3.13;1.80;;;21.50;99.90;;;;;;4992196;28;20907;-80
2023/07/16 11:03:38;;;;;;;3.00;2.50;;;21.60;99.90;;;;;;4960902;28;20400;-77
2023/07/16 11:06:11;;;;;;;2.90;1.73;;;21.80;99.90;;;;;;4978012;28;20504;-79
2023/07/16 11:08:37;;;;;;;4.35;1.90;;;22.10;99.90;;;;;;4961511;28;20416;-79
2023/07/16 11:11:03;;;;;;;3.10;1.65;;;22.00;99.90;;;;;;4980853;28;20953;-80
2023/07/16 11:13:32;;;;;;;4.17;1.80;;;21.70;99.90;;;;;;4997443;28;20387;-80
2023/07/16 11:16:10;;;;;;;3.42;2.10;;;22.20;99.90;;;;;;4995721;28;20464;-79
2023/07/16 11:18:35;;;;;;;3.92;1.70;;;22.50;99.90;;;;;;4993973;28;20402;-79
2023/07/16 11:21:01;;;;;;;4.00;1.90;;;22.60;99.90;;;;;;4993958;28;20402;-79
2023/07/16 11:23:26;;;;;;;2.80;2.00;;;22.80;99.90;;;;;;4995505;28;20401;-79
2023/07/16 11:25:52;;;;;;;3.10;1.60;;;22.60;99.90;;;;;;4992354;28;20470;-78
2023/07/16 11:28:18;;;;;;;3.95;2.08;;;22.60;99.90;;;;;;4960084;28;20428;-79
2023/07/16 11:30:43;;;;;;;3.53;1.70;;;22.70;99.90;;;;;;4975996;28;20419;-80
2023/07/16 11:33:10;;;;;;;3.20;1.70;;;22.80;99.90;;;;;;4978328;28;20384;-78
2023/07/16 11:35:37;;;;;;;2.63;1.60;;;22.40;99.90;;;;;;4994978;28;20429;-79
2023/07/16 11:38:04;;;;;;;3.25;1.83;;;22.50;99.90;;;;;;4993337;28;20394;-79
2023/07/16 11:40:30;;;;;;;5.18;1.90;;;22.90;99.90;;;;;;4993142;28;20587;-80
2023/07/16 11:42:56;;;;;;;4.43;2.40;;;22.60;99.90;;;;;;4994281;28;20394;-80
2023/07/16 11:45:26;;;;;;;4.10;2.15;;;22.50;99.90;;;;;;4985458;28;20431;-78
2023/07/16 11:47:52;;;;;;;2.80;1.75;;;22.60;99.90;;;;;;4987480;28;20408;-79
2023/07/16 11:50:17;;;;;;;3.10;1.65;;;23.80;99.90;;;;;;4993839;28;20406;-80
2023/07/16 11:52:51;;;;;;;3.03;1.70;;;24.10;99.90;;;;;;4994437;28;20402;-80
2023/07/16 11:55:17;;;;;;;4.20;1.70;;;24.40;99.90;;;;;;4978326;28;20398;-78
2023/07/16 11:57:42;;;;;;;4.53;2.10;;;24.80;99.90;;;;;;4994532;28;20452;-79
2023/07/16 12:00:08;;;;;;;3.10;1.80;;;24.80;99.90;;;;;;4993589;28;20406;-80
2023/07/16 12:02:33;;;;;;;3.75;1.90;;;25.00;99.90;;;;;;4984377;28;20404;-80
2023/07/16 12:04:59;;;;;;;2.93;1.70;;;25.80;99.90;;;;;;4959686;28;20388;-80
2023/07/16 12:07:32;;;;;;;3.42;1.80;;;25.80;99.90;;;;;;4984440;28;20898;-77
2023/07/16 12:09:58;;;;;;;3.07;1.77;;;25.40;99.90;;;;;;4975240;28;20426;-79
2023/07/16 12:12:23;;;;;;;4.07;2.00;;;25.00;99.90;;;;;;4994036;28;20460;-79
2023/07/16 12:14:49;;;;;;;2.90;1.73;;;24.50;99.90;;;;;;4985405;28;20388;-77
2023/07/16 12:17:14;;;;;;;3.28;1.90;;;24.80;99.90;;;;;;4987518;28;20813;-77
2023/07/16 12:19:40;;;;;;;2.78;1.90;;;24.80;99.90;;;;;;5000904;28;20414;-77
2023/07/16 12:22:06;;;;;;;2.70;1.70;;;25.00;99.90;;;;;;5003465;28;20461;-79
2023/07/16 12:24:31;;;;;;;3.08;1.90;;;24.70;99.90;;;;;;4980388;28;20390;-78
2023/07/16 12:26:57;;;;;;;2.85;2.13;;;24.40;99.90;;;;;;4995233;28;20451;-79
2023/07/16 12:29:23;;;;;;;3.00;1.80;;;24.70;99.90;;;;;;5010996;28;20492;-78
2023/07/16 12:31:49;;;;;;;3.35;1.70;;;24.80;99.90;;;;;;5023125;28;20456;-77
2023/07/16 12:34:14;;;;;;;3.20;1.60;;;24.20;99.90;;;;;;5006225;28;20410;-77
2023/07/16 12:36:40;;;;;;;3.17;1.70;;;24.10;99.90;;;;;;5008826;23;20449;-84
2023/07/16 12:39:05;;;;;;;3.05;1.70;;;23.80;99.90;;;;;;4974700;28;20398;-86
2023/07/16 12:55:06;;;;;;;2.10;1.52;;;25.40;99.90;;;;;;4996239;28;20442;-89
2023/07/16 12:57:32;;;;;;;3.83;1.70;;;25.80;99.90;;;;;;4994187;28;20391;-86
2023/07/16 12:59:57;;;;;;;2.80;1.40;;;26.00;99.90;;;;;;4993417;28;20395;-87
2023/07/16 13:02:23;;;;;;;1.80;1.38;;;26.30;99.90;;;;;;4992842;28;20395;-86